sensor_id;sensor_type;location;lat;lon;timestamp;pressure;altitude;pressure_sealevel;temperature;humidity
52361;BME280;38294;42.966;1.608;2023-02-11T04:04:10;98802.44;;;-0.36;70.13
52361;BME280;38294;42.966;1.608;2023-02-11T04:06:36;98807.25;;;-0.17;69.00
52361;BME280;38294;42.966;1.608;2023-02-11T04:09:02;98806.75;;;-0.14;68.40
52361;BME280;38294;42.966;1.608;2023-02-11T04:11:28;98800.47;;;-0.19;67.67
52361;BME280;38294;42.966;1.608;2023-02-11T04:13:53;98805.44;;;-0.11;67.41
52361;BME280;38294;42.966;1.608;2023-02-11T04:16:19;98801.19;;;-0.07;67.42
52361;BME280;38294;42.966;1.608;2023-02-11T04:18:44;98791.38;;;0.09;67.03
52361;BME280;38294;42.966;1.608;2023-02-11T04:21:10;98790.53;;;0.03;67.57
52361;BME280;38294;42.966;1.608;2023-02-11T04:23:36;98788.50;;;0.15;67.52
52361;BME280;38294;42.966;1.608;2023-02-11T04:26:01;98787.09;;;0.39;66.84
52361;BME280;38294;42.966;1.608;2023-02-11T04:28:27;98788.22;;;0.43;66.57
52361;BME280;38294;42.966;1.608;2023-02-11T04:30:54;98781.91;;;0.33;66.63
52361;BME280;38294;42.966;1.608;2023-02-11T04:33:20;98782.53;;;0.40;65.99
52361;BME280;38294;42.966;1.608;2023-02-11T04:35:46;98782.28;;;0.73;64.35
52361;BME280;38294;42.966;1.608;2023-02-11T04:38:12;98781.06;;;0.91;63.35
52361;BME280;38294;42.966;1.608;2023-02-11T04:40:37;98775.88;;;0.84;63.71
52361;BME280;38294;42.966;1.608;2023-02-11T04:43:03;98770.09;;;0.66;62.70
52361;BME280;38294;42.966;1.608;2023-02-11T04:45:29;98769.03;;;0.08;63.19
52361;BME280;38294;42.966;1.608;2023-02-11T04:47:54;98773.16;;;0.16;64.15
52361;BME280;38294;42.966;1.608;2023-02-11T04:50:20;98763.19;;;0.16;63.81
52361;BME280;38294;42.966;1.608;2023-02-11T04:52:45;98764.06;;;0.27;63.84
52361;BME280;38294;42.966;1.608;2023-02-11T04:55:11;98766.16;;;0.20;63.59
52361;BME280;38294;42.966;1.608;2023-02-11T04:57:37;98765.97;;;0.26;62.97
52361;BME280;38294;42.966;1.608;2023-02-11T05:00:03;98772.78;;;0.34;63.00
52361;BME280;38294;42.966;1.608;2023-02-11T05:02:29;98773.53;;;0.29;62.94
52361;BME280;38294;42.966;1.608;2023-02-11T05:04:55;98775.44;;;0.29;62.96
52361;BME280;38294;42.966;1.608;2023-02-11T05:07:20;98770.97;;;0.13;63.55
52361;BME280;38294;42.966;1.608;2023-02-11T05:09:46;98782.44;;;0.30;63.15
52361;BME280;38294;42.966;1.608;2023-02-11T05:12:11;98771.53;;;0.20;62.95
52361;BME280;38294;42.966;1.608;2023-02-11T05:14:37;98781.81;;;-0.26;63.67
52361;BME280;38294;42.966;1.608;2023-02-11T05:17:02;98777.34;;;-0.20;64.43
52361;BME280;38294;42.966;1.608;2023-02-11T05:19:28;98777.44;;;0.17;62.88
52361;BME280;38294;42.966;1.608;2023-02-11T05:21:55;98768.94;;;0.30;63.02
52361;BME280;38294;42.966;1.608;2023-02-11T05:24:20;98769.38;;;0.17;63.58
52361;BME280;38294;42.966;1.608;2023-02-11T05:26:46;98769.41;;;-0.05;63.65
52361;BME280;38294;42.966;1.608;2023-02-11T05:29:11;98770.84;;;0.03;64.06
52361;BME280;38294;42.966;1.608;2023-02-11T05:31:37;98766.38;;;-0.14;63.45
52361;BME280;38294;42.966;1.608;2023-02-11T05:34:02;98762.97;;;0.23;62.78
52361;BME280;38294;42.966;1.608;2023-02-11T05:36:29;98760.03;;;0.24;62.77
52361;BME280;38294;42.966;1.608;2023-02-11T05:38:54;98755.25;;;0.31;62.38
52361;BME280;38294;42.966;1.608;2023-02-11T05:41:20;98757.13;;;0.31;63.00
52361;BME280;38294;42.966;1.608;2023-02-11T05:43:48;98754.56;;;0.46;62.67
52361;BME280;38294;42.966;1.608;2023-02-11T05:46:16;98751.81;;;0.41;62.82
52361;BME280;38294;42.966;1.608;2023-02-11T05:48:42;98754.75;;;0.39;62.46
52361;BME280;38294;42.966;1.608;2023-02-11T05:51:07;98747.91;;;0.27;62.46
52361;BME280;38294;42.966;1.608;2023-02-11T05:53:33;98739.78;;;0.22;62.29
52361;BME280;38294;42.966;1.608;2023-02-11T05:55:59;98739.41;;;0.13;63.01
52361;BME280;38294;42.966;1.608;2023-02-11T05:58:25;98743.03;;;0.24;62.36
52361;BME280;38294;42.966;1.608;2023-02-11T06:00:50;98738.03;;;0.37;61.77
52361;BME280;38294;42.966;1.608;2023-02-11T06:03:16;98743.97;;;0.39;62.15
52361;BME280;38294;42.966;1.608;2023-02-11T06:05:43;98742.91;;;0.40;61.63
52361;BME280;38294;42.966;1.608;2023-02-11T06:08:08;98747.50;;;0.40;61.66
52361;BME280;38294;42.966;1.608;2023-02-11T06:10:35;98743.31;;;0.54;61.80
52361;BME280;38294;42.966;1.608;2023-02-11T06:13:01;98748.72;;;0.27;61.46
52361;BME280;38294;42.966;1.608;2023-02-11T06:15:27;98752.44;;;-0.06;61.84
52361;BME280;38294;42.966;1.608;2023-02-11T06:17:52;98749.91;;;-0.17;61.64
52361;BME280;38294;42.966;1.608;2023-02-11T06:20:18;98754.91;;;-0.26;62.50
52361;BME280;38294;42.966;1.608;2023-02-11T06:22:44;98760.22;;;-0.09;62.64
52361;BME280;38294;42.966;1.608;2023-02-11T06:25:10;98755.72;;;-0.04;62.43
52361;BME280;38294;42.966;1.608;2023-02-11T06:27:36;98764.78;;;0.17;61.44
52361;BME280;38294;42.966;1.608;2023-02-11T06:30:04;98765.97;;;0.26;61.60
52361;BME280;38294;42.966;1.608;2023-02-11T06:32:30;98760.56;;;0.26;61.41
52361;BME280;38294;42.966;1.608;2023-02-11T06:34:55;98756.25;;;0.25;61.76
52361;BME280;38294;42.966;1.608;2023-02-11T06:37:21;98759.00;;;0.30;61.24
52361;BME280;38294;42.966;1.608;2023-02-11T06:39:46;98758.38;;;0.23;61.15
52361;BME280;38294;42.966;1.608;2023-02-11T06:42:12;98759.72;;;0.21;60.81
52361;BME280;38294;42.966;1.608;2023-02-11T06:44:38;98766.88;;;0.37;60.41
52361;BME280;38294;42.966;1.608;2023-02-11T06:47:03;98762.19;;;0.27;61.30
52361;BME280;38294;42.966;1.608;2023-02-11T06:49:29;98764.25;;;0.15;60.97
52361;BME280;38294;42.966;1.608;2023-02-11T06:51:55;98762.91;;;0.18;60.93
52361;BME280;38294;42.966;1.608;2023-02-11T06:54:20;98769.16;;;0.23;60.77
52361;BME280;38294;42.966;1.608;2023-02-11T06:56:46;98769.56;;;0.10;61.05
52361;BME280;38294;42.966;1.608;2023-02-11T06:59:15;98763.34;;;0.36;61.58
52361;BME280;38294;42.966;1.608;2023-02-11T07:01:41;98768.72;;;0.31;61.24
52361;BME280;38294;42.966;1.608;2023-02-11T07:04:07;98762.09;;;0.44;60.97
52361;BME280;38294;42.966;1.608;2023-02-11T07:06:32;98772.13;;;0.22;60.94
52361;BME280;38294;42.966;1.608;2023-02-11T07:08:58;98759.38;;;0.12;61.14
52361;BME280;38294;42.966;1.608;2023-02-11T07:11:26;98762.84;;;-0.14;61.70
52361;BME280;38294;42.966;1.608;2023-02-11T07:13:54;98764.00;;;-0.10;61.27
52361;BME280;38294;42.966;1.608;2023-02-11T07:16:21;98764.34;;;-0.02;61.57
52361;BME280;38294;42.966;1.608;2023-02-11T07:18:47;98773.19;;;-0.28;61.73
52361;BME280;38294;42.966;1.608;2023-02-11T07:21:15;98766.50;;;-0.69;62.22
52361;BME280;38294;42.966;1.608;2023-02-11T07:23:41;98762.50;;;-0.66;62.24
52361;BME280;38294;42.966;1.608;2023-02-11T07:26:10;98766.84;;;0.05;61.22
52361;BME280;38294;42.966;1.608;2023-02-11T07:28:36;98768.63;;;0.21;60.29
52361;BME280;38294;42.966;1.608;2023-02-11T07:31:10;98767.69;;;0.37;59.93
52361;BME280;38294;42.966;1.608;2023-02-11T07:33:36;98768.94;;;0.30;60.37
52361;BME280;38294;42.966;1.608;2023-02-11T07:36:03;98771.28;;;0.48;60.11
52361;BME280;38294;42.966;1.608;2023-02-11T07:38:31;98767.59;;;0.59;60.24
52361;BME280;38294;42.966;1.608;2023-02-11T07:41:01;98763.19;;;0.80;60.11
52361;BME280;38294;42.966;1.608;2023-02-11T07:43:27;98766.34;;;0.72;59.50
52361;BME280;38294;42.966;1.608;2023-02-11T07:45:53;98759.81;;;0.63;59.35
52361;BME280;38294;42.966;1.608;2023-02-11T07:48:19;98765.75;;;0.96;59.24
52361;BME280;38294;42.966;1.608;2023-02-11T07:50:44;98764.19;;;1.05;58.48
52361;BME280;38294;42.966;1.608;2023-02-11T07:53:10;98771.59;;;0.88;58.41
52361;BME280;38294;42.966;1.608;2023-02-11T07:55:35;98770.91;;;0.34;59.70
52361;BME280;38294;42.966;1.608;2023-02-11T07:58:01;98768.50;;;0.38;59.64
52361;BME280;38294;42.966;1.608;2023-02-11T08:00:26;98768.88;;;1.25;57.80
52361;BME280;38294;42.966;1.608;2023-02-11T08:02:52;98766.72;;;1.79;56.84
52361;BME280;38294;42.966;1.608;2023-02-11T08:05:17;98765.44;;;2.17;56.17
52361;BME280;38294;42.966;1.608;2023-02-11T08:07:43;98764.69;;;2.37;55.33
52361;BME280;38294;42.966;1.608;2023-02-11T08:10:09;98766.84;;;2.50;54.92
52361;BME280;38294;42.966;1.608;2023-02-11T08:12:34;98770.94;;;2.83;54.38
52361;BME280;38294;42.966;1.608;2023-02-11T08:15:00;98775.25;;;2.89;53.85
52361;BME280;38294;42.966;1.608;2023-02-11T08:17:25;98777.38;;;3.27;53.50
52361;BME280;38294;42.966;1.608;2023-02-11T08:19:51;98778.09;;;3.58;52.46
52361;BME280;38294;42.966;1.608;2023-02-11T08:22:16;98783.22;;;3.75;51.04
52361;BME280;38294;42.966;1.608;2023-02-11T08:24:42;98777.94;;;4.03;51.98
52361;BME280;38294;42.966;1.608;2023-02-11T08:27:07;98788.06;;;4.32;50.01
52361;BME280;38294;42.966;1.608;2023-02-11T08:29:33;98779.25;;;4.50;50.36
52361;BME280;38294;42.966;1.608;2023-02-11T08:31:58;98781.47;;;4.82;49.33
52361;BME280;38294;42.966;1.608;2023-02-11T08:34:24;98780.69;;;4.76;48.19
52361;BME280;38294;42.966;1.608;2023-02-11T08:36:49;98774.78;;;4.69;48.64
52361;BME280;38294;42.966;1.608;2023-02-11T08:39:18;98781.63;;;5.24;48.62
52361;BME280;38294;42.966;1.608;2023-02-11T08:41:44;98771.25;;;5.31;48.82
52361;BME280;38294;42.966;1.608;2023-02-11T08:44:10;98774.25;;;5.29;47.94
52361;BME280;38294;42.966;1.608;2023-02-11T08:46:36;98779.63;;;5.35;48.37
52361;BME280;38294;42.966;1.608;2023-02-11T08:49:02;98763.97;;;5.74;47.34
52361;BME280;38294;42.966;1.608;2023-02-11T08:51:28;98774.00;;;6.21;47.18
52361;BME280;38294;42.966;1.608;2023-02-11T08:53:58;98764.72;;;6.59;45.83
52361;BME280;38294;42.966;1.608;2023-02-11T08:56:24;98760.88;;;6.79;44.64
52361;BME280;38294;42.966;1.608;2023-02-11T08:58:50;98763.31;;;6.80;44.26
52361;BME280;38294;42.966;1.608;2023-02-11T09:01:20;98752.16;;;6.96;43.06
52361;BME280;38294;42.966;1.608;2023-02-11T09:03:46;98759.13;;;7.02;43.81
52361;BME280;38294;42.966;1.608;2023-02-11T09:06:12;98762.84;;;7.24;41.81
52361;BME280;38294;42.966;1.608;2023-02-11T09:08:41;98750.84;;;7.66;41.92
52361;BME280;38294;42.966;1.608;2023-02-11T09:11:08;98757.03;;;7.72;42.61
52361;BME280;38294;42.966;1.608;2023-02-11T09:13:34;98746.72;;;7.96;40.55
52361;BME280;38294;42.966;1.608;2023-02-11T09:16:01;98748.34;;;7.83;39.48
52361;BME280;38294;42.966;1.608;2023-02-11T09:18:27;98744.25;;;8.22;39.29
52361;BME280;38294;42.966;1.608;2023-02-11T09:21:01;98748.50;;;8.64;38.46
52361;BME280;38294;42.966;1.608;2023-02-11T09:23:26;98752.34;;;8.63;38.30
52361;BME280;38294;42.966;1.608;2023-02-11T09:25:52;98746.63;;;8.95;37.59
52361;BME280;38294;42.966;1.608;2023-02-11T09:28:17;98753.78;;;9.05;37.78
52361;BME280;38294;42.966;1.608;2023-02-11T09:30:43;98744.41;;;8.97;36.75
52361;BME280;38294;42.966;1.608;2023-02-11T09:33:09;98740.16;;;9.13;38.53
52361;BME280;38294;42.966;1.608;2023-02-11T09:35:34;98748.88;;;9.46;36.10
52361;BME280;38294;42.966;1.608;2023-02-11T09:38:00;98750.25;;;9.66;36.06
52361;BME280;38294;42.966;1.608;2023-02-11T09:40:25;98741.13;;;9.79;35.54
52361;BME280;38294;42.966;1.608;2023-02-11T09:43:07;98740.56;;;10.08;33.94
52361;BME280;38294;42.966;1.608;2023-02-11T09:45:36;98741.03;;;10.10;34.14
52361;BME280;38294;42.966;1.608;2023-02-11T09:48:17;98737.72;;;10.38;33.53
52361;BME280;38294;42.966;1.608;2023-02-11T09:50:50;98733.72;;;10.27;33.49
52361;BME280;38294;42.966;1.608;2023-02-11T09:55:52;98745.47;;;10.71;33.31
52361;BME280;38294;42.966;1.608;2023-02-11T09:58:27;98736.94;;;10.55;32.38
52361;BME280;38294;42.966;1.608;2023-02-11T10:06:35;98737.38;;;11.08;32.11
52361;BME280;38294;42.966;1.608;2023-02-11T10:17:15;98724.78;;;11.63;29.83
52361;BME280;38294;42.966;1.608;2023-02-11T10:24:27;98737.53;;;11.76;30.38
52361;BME280;38294;42.966;1.608;2023-02-11T10:26:54;98729.00;;;12.27;30.72
52361;BME280;38294;42.966;1.608;2023-02-11T10:29:38;98726.97;;;12.36;30.09
52361;BME280;38294;42.966;1.608;2023-02-11T10:34:55;98721.63;;;12.40;30.15
52361;BME280;38294;42.966;1.608;2023-02-11T10:37:23;98723.56;;;12.39;30.55
52361;BME280;38294;42.966;1.608;2023-02-11T10:39:48;98725.66;;;12.42;30.29
52361;BME280;38294;42.966;1.608;2023-02-11T10:42:14;98724.44;;;12.52;29.81
52361;BME280;38294;42.966;1.608;2023-02-11T10:44:58;98718.56;;;12.95;29.32
52361;BME280;38294;42.966;1.608;2023-02-11T10:47:28;98711.91;;;12.96;29.31
52361;BME280;38294;42.966;1.608;2023-02-11T10:49:54;98707.47;;;13.03;29.31
52361;BME280;38294;42.966;1.608;2023-02-11T10:55:15;98703.34;;;13.42;28.64
52361;BME280;38294;42.966;1.608;2023-02-11T10:57:49;98690.97;;;13.36;28.75
52361;BME280;38294;42.966;1.608;2023-02-11T11:03:22;98692.84;;;13.56;28.45
52361;BME280;38294;42.966;1.608;2023-02-11T11:05:59;98694.88;;;13.47;28.23
52361;BME280;38294;42.966;1.608;2023-02-11T11:11:22;98684.00;;;13.87;27.54
52361;BME280;38294;42.966;1.608;2023-02-11T11:16:29;98674.00;;;13.34;27.88
52361;BME280;38294;42.966;1.608;2023-02-11T11:21:41;98663.41;;;14.09;26.58
52361;BME280;38294;42.966;1.608;2023-02-11T11:24:39;98661.84;;;13.72;26.62
52361;BME280;38294;42.966;1.608;2023-02-11T11:27:16;98651.94;;;13.10;27.66
52361;BME280;38294;42.966;1.608;2023-02-11T11:29:47;98655.19;;;12.91;27.98
52361;BME280;38294;42.966;1.608;2023-02-11T11:32:23;98654.94;;;12.84;28.34
52361;BME280;38294;42.966;1.608;2023-02-11T11:34:54;98643.50;;;12.61;29.63
52361;BME280;38294;42.966;1.608;2023-02-11T11:37:25;98642.78;;;12.32;30.30
52361;BME280;38294;42.966;1.608;2023-02-11T11:40:07;98640.13;;;12.44;30.65
52361;BME280;38294;42.966;1.608;2023-02-11T11:42:35;98651.03;;;12.32;30.23
52361;BME280;38294;42.966;1.608;2023-02-11T11:45:24;98636.47;;;12.73;30.19
52361;BME280;38294;42.966;1.608;2023-02-11T11:47:57;98631.03;;;12.64;30.48
52361;BME280;38294;42.966;1.608;2023-02-11T11:50:55;98627.97;;;13.10;30.02
52361;BME280;38294;42.966;1.608;2023-02-11T11:53:44;98631.78;;;13.18;30.16
52361;BME280;38294;42.966;1.608;2023-02-11T11:56:24;98627.63;;;13.12;29.67
52361;BME280;38294;42.966;1.608;2023-02-11T11:58:50;98616.38;;;13.05;30.24
52361;BME280;38294;42.966;1.608;2023-02-11T12:01:43;98615.50;;;13.25;29.85
52361;BME280;38294;42.966;1.608;2023-02-11T12:06:55;98613.88;;;13.12;31.32
52361;BME280;38294;42.966;1.608;2023-02-11T12:09:43;98605.31;;;13.50;32.20
52361;BME280;38294;42.966;1.608;2023-02-11T12:12:16;98609.06;;;13.09;33.28
52361;BME280;38294;42.966;1.608;2023-02-11T12:20:26;98595.66;;;13.68;33.53
52361;BME280;38294;42.966;1.608;2023-02-11T12:23:36;98598.94;;;13.98;32.20
52361;BME280;38294;42.966;1.608;2023-02-11T12:26:23;98593.28;;;14.06;33.21
52361;BME280;38294;42.966;1.608;2023-02-11T12:29:25;98595.81;;;13.99;33.44
52361;BME280;38294;42.966;1.608;2023-02-11T12:43:19;98591.13;;;14.40;33.96
52361;BME280;38294;42.966;1.608;2023-02-11T12:51:46;98586.53;;;14.32;34.40
52361;BME280;38294;42.966;1.608;2023-02-11T12:54:53;98573.31;;;14.65;34.08
52361;BME280;38294;42.966;1.608;2023-02-11T12:57:25;98568.25;;;14.67;34.39
52361;BME280;38294;42.966;1.608;2023-02-11T13:00:21;98563.84;;;15.09;34.14
52361;BME280;38294;42.966;1.608;2023-02-11T13:03:04;98561.22;;;14.54;34.44
52361;BME280;38294;42.966;1.608;2023-02-11T13:05:37;98562.88;;;14.86;34.67
52361;BME280;38294;42.966;1.608;2023-02-11T13:08:13;98559.13;;;14.79;35.16
52361;BME280;38294;42.966;1.608;2023-02-11T13:10:42;98555.94;;;14.49;34.52
52361;BME280;38294;42.966;1.608;2023-02-11T13:13:28;98546.00;;;15.38;33.57
52361;BME280;38294;42.966;1.608;2023-02-11T13:16:05;98543.25;;;15.38;34.00
52361;BME280;38294;42.966;1.608;2023-02-11T13:18:59;98541.22;;;15.19;34.51
52361;BME280;38294;42.966;1.608;2023-02-11T13:21:48;98533.97;;;15.46;34.40
52361;BME280;38294;42.966;1.608;2023-02-11T13:24:36;98532.03;;;15.15;35.85
52361;BME280;38294;42.966;1.608;2023-02-11T13:32:20;98516.75;;;15.18;34.78
52361;BME280;38294;42.966;1.608;2023-02-11T13:40:00;98497.38;;;14.99;35.21
52361;BME280;38294;42.966;1.608;2023-02-11T13:42:27;98500.34;;;15.75;34.06
52361;BME280;38294;42.966;1.608;2023-02-11T13:44:54;98495.44;;;15.34;35.10
52361;BME280;38294;42.966;1.608;2023-02-11T13:47:30;98493.97;;;15.05;35.06
52361;BME280;38294;42.966;1.608;2023-02-11T13:49:56;98494.81;;;15.41;35.33
52361;BME280;38294;42.966;1.608;2023-02-11T13:52:32;98493.13;;;15.90;34.51
52361;BME280;38294;42.966;1.608;2023-02-11T13:57:38;98491.06;;;16.45;33.94
52361;BME280;38294;42.966;1.608;2023-02-11T14:14:15;98492.63;;;15.85;35.91
52361;BME280;38294;42.966;1.608;2023-02-11T14:17:17;98485.94;;;15.86;35.06
52361;BME280;38294;42.966;1.608;2023-02-11T14:19:47;98493.84;;;15.33;36.86
52361;BME280;38294;42.966;1.608;2023-02-11T14:22:49;98472.84;;;16.21;35.48
52361;BME280;38294;42.966;1.608;2023-02-11T14:25:20;98483.41;;;16.15;36.03
52361;BME280;38294;42.966;1.608;2023-02-11T14:28:10;98477.44;;;15.75;36.59
52361;BME280;38294;42.966;1.608;2023-02-11T14:30:44;98475.41;;;15.91;36.94
52361;BME280;38294;42.966;1.608;2023-02-11T14:35:54;98474.59;;;15.71;37.31
52361;BME280;38294;42.966;1.608;2023-02-11T14:41:30;98467.75;;;15.85;37.63
52361;BME280;38294;42.966;1.608;2023-02-11T14:44:14;98477.63;;;15.32;38.54
52361;BME280;38294;42.966;1.608;2023-02-11T14:46:47;98465.56;;;15.55;38.48
52361;BME280;38294;42.966;1.608;2023-02-11T14:49:28;98469.28;;;15.63;38.53
52361;BME280;38294;42.966;1.608;2023-02-11T14:52:01;98462.22;;;15.65;38.63
52361;BME280;38294;42.966;1.608;2023-02-11T14:54:28;98466.97;;;15.14;39.84
52361;BME280;38294;42.966;1.608;2023-02-11T14:59:37;98466.94;;;15.30;39.26
52361;BME280;38294;42.966;1.608;2023-02-11T15:02:12;98465.03;;;15.15;39.85
52361;BME280;38294;42.966;1.608;2023-02-11T15:04:43;98474.50;;;14.83;41.05
52361;BME280;38294;42.966;1.608;2023-02-11T15:07:11;98467.25;;;15.09;40.80
52361;BME280;38294;42.966;1.608;2023-02-11T15:09:41;98468.38;;;15.24;40.60
52361;BME280;38294;42.966;1.608;2023-02-11T15:12:19;98469.78;;;15.49;40.29
52361;BME280;38294;42.966;1.608;2023-02-11T15:14:50;98472.88;;;15.48;40.78
52361;BME280;38294;42.966;1.608;2023-02-11T15:17:21;98474.97;;;15.19;40.85
52361;BME280;38294;42.966;1.608;2023-02-11T15:19:50;98474.41;;;14.79;42.12
52361;BME280;38294;42.966;1.608;2023-02-11T15:22:32;98478.31;;;14.94;41.61
52361;BME280;38294;42.966;1.608;2023-02-11T15:25:10;98472.53;;;14.99;41.58
52361;BME280;38294;42.966;1.608;2023-02-11T15:27:45;98475.44;;;14.90;42.20
52361;BME280;38294;42.966;1.608;2023-02-11T15:32:50;98476.69;;;15.08;41.67
52361;BME280;38294;42.966;1.608;2023-02-11T15:35:17;98478.38;;;15.13;41.10
52361;BME280;38294;42.966;1.608;2023-02-11T15:37:44;98475.19;;;14.95;41.52
52361;BME280;38294;42.966;1.608;2023-02-11T15:40:15;98475.38;;;14.71;42.00
52361;BME280;38294;42.966;1.608;2023-02-11T15:43:02;98474.03;;;14.81;41.71
52361;BME280;38294;42.966;1.608;2023-02-11T15:48:07;98483.81;;;14.62;42.49
52361;BME280;38294;42.966;1.608;2023-02-11T15:50:34;98482.53;;;14.44;42.61
52361;BME280;38294;42.966;1.608;2023-02-11T15:56:23;98479.81;;;15.07;41.41
52361;BME280;38294;42.966;1.608;2023-02-11T15:58:52;98478.91;;;15.03;41.04
52361;BME280;38294;42.966;1.608;2023-02-11T16:01:40;98491.38;;;14.65;41.68
52361;BME280;38294;42.966;1.608;2023-02-11T16:04:22;98479.22;;;14.82;41.92
52361;BME280;38294;42.966;1.608;2023-02-11T16:06:49;98479.28;;;14.11;42.92
52361;BME280;38294;42.966;1.608;2023-02-11T16:17:20;98480.47;;;13.98;43.32
52361;BME280;38294;42.966;1.608;2023-02-11T16:19:49;98479.34;;;14.42;42.81
52361;BME280;38294;42.966;1.608;2023-02-11T16:22:18;98482.13;;;14.14;43.17
52361;BME280;38294;42.966;1.608;2023-02-11T16:24:48;98483.81;;;14.19;43.39
52361;BME280;38294;42.966;1.608;2023-02-11T16:27:24;98487.03;;;14.21;43.17
52361;BME280;38294;42.966;1.608;2023-02-11T16:29:52;98481.75;;;14.16;43.24
52361;BME280;38294;42.966;1.608;2023-02-11T16:32:24;98496.50;;;14.08;43.47
52361;BME280;38294;42.966;1.608;2023-02-11T16:34:51;98489.66;;;14.02;43.49
52361;BME280;38294;42.966;1.608;2023-02-11T16:37:17;98493.53;;;14.01;43.46
52361;BME280;38294;42.966;1.608;2023-02-11T16:39:43;98488.72;;;13.70;43.73
52361;BME280;38294;42.966;1.608;2023-02-11T16:42:11;98492.63;;;13.69;44.23
52361;BME280;38294;42.966;1.608;2023-02-11T16:44:37;98491.09;;;13.44;44.62
52361;BME280;38294;42.966;1.608;2023-02-11T16:47:05;98497.72;;;13.43;44.76
52361;BME280;38294;42.966;1.608;2023-02-11T16:49:40;98496.16;;;13.30;45.21
52361;BME280;38294;42.966;1.608;2023-02-11T16:52:08;98501.53;;;13.02;45.83
52361;BME280;38294;42.966;1.608;2023-02-11T16:54:36;98500.50;;;12.94;46.23
52361;BME280;38294;42.966;1.608;2023-02-11T16:57:10;98498.44;;;12.79;46.52
52361;BME280;38294;42.966;1.608;2023-02-11T16:59:38;98510.44;;;12.62;46.95
52361;BME280;38294;42.966;1.608;2023-02-11T17:02:03;98513.25;;;12.54;47.66
52361;BME280;38294;42.966;1.608;2023-02-11T17:04:30;98503.56;;;12.69;47.44
52361;BME280;38294;42.966;1.608;2023-02-11T17:06:58;98501.97;;;12.92;46.99
52361;BME280;38294;42.966;1.608;2023-02-11T17:09:26;98495.75;;;12.83;46.93
52361;BME280;38294;42.966;1.608;2023-02-11T17:11:52;98510.06;;;12.52;47.59
52361;BME280;38294;42.966;1.608;2023-02-11T17:14:18;98524.06;;;12.71;47.36
52361;BME280;38294;42.966;1.608;2023-02-11T17:16:45;98514.47;;;12.32;48.69
52361;BME280;38294;42.966;1.608;2023-02-11T17:19:12;98519.41;;;12.39;48.55
52361;BME280;38294;42.966;1.608;2023-02-11T17:21:42;98522.97;;;11.86;49.79
52361;BME280;38294;42.966;1.608;2023-02-11T17:24:08;98523.56;;;11.50;51.33
52361;BME280;38294;42.966;1.608;2023-02-11T17:26:35;98525.81;;;11.48;51.15
52361;BME280;38294;42.966;1.608;2023-02-11T17:29:03;98530.06;;;12.07;49.78
52361;BME280;38294;42.966;1.608;2023-02-11T17:31:29;98526.84;;;11.64;50.81
52361;BME280;38294;42.966;1.608;2023-02-11T17:33:54;98523.28;;;11.43;51.41
52361;BME280;38294;42.966;1.608;2023-02-11T17:36:20;98527.69;;;11.06;52.58
52361;BME280;38294;42.966;1.608;2023-02-11T17:38:46;98531.44;;;11.51;51.52
52361;BME280;38294;42.966;1.608;2023-02-11T17:41:11;98536.72;;;11.06;51.57
52361;BME280;38294;42.966;1.608;2023-02-11T17:43:37;98539.09;;;11.17;51.71
52361;BME280;38294;42.966;1.608;2023-02-11T17:46:06;98540.00;;;11.29;50.83
52361;BME280;38294;42.966;1.608;2023-02-11T17:48:32;98547.94;;;11.22;51.11
52361;BME280;38294;42.966;1.608;2023-02-11T17:50:58;98547.75;;;10.89;52.28
52361;BME280;38294;42.966;1.608;2023-02-11T17:53:23;98546.38;;;10.75;51.49
52361;BME280;38294;42.966;1.608;2023-02-11T17:55:49;98547.25;;;11.34;51.30
52361;BME280;38294;42.966;1.608;2023-02-11T17:58:15;98540.13;;;11.03;52.68
52361;BME280;38294;42.966;1.608;2023-02-11T18:00:41;98547.53;;;10.65;54.15
52361;BME280;38294;42.966;1.608;2023-02-11T18:03:07;98549.31;;;11.07;52.59
52361;BME280;38294;42.966;1.608;2023-02-11T18:05:36;98547.81;;;10.81;52.00
52361;BME280;38294;42.966;1.608;2023-02-11T18:08:04;98550.59;;;10.64;50.97
52361;BME280;38294;42.966;1.608;2023-02-11T18:10:30;98559.72;;;10.04;51.50
52361;BME280;38294;42.966;1.608;2023-02-11T18:12:56;98551.66;;;9.73;52.97
52361;BME280;38294;42.966;1.608;2023-02-11T18:15:21;98558.38;;;9.50;52.96
52361;BME280;38294;42.966;1.608;2023-02-11T18:17:47;98566.63;;;9.59;54.17
52361;BME280;38294;42.966;1.608;2023-02-11T18:20:12;98561.94;;;9.68;53.23
52361;BME280;38294;42.966;1.608;2023-02-11T18:22:39;98565.81;;;9.58;53.28
52361;BME280;38294;42.966;1.608;2023-02-11T18:25:10;98558.56;;;10.05;53.15
52361;BME280;38294;42.966;1.608;2023-02-11T18:27:37;98574.03;;;9.75;52.60
52361;BME280;38294;42.966;1.608;2023-02-11T18:30:04;98572.25;;;9.79;52.19
52361;BME280;38294;42.966;1.608;2023-02-11T18:32:30;98575.03;;;9.14;56.48
52361;BME280;38294;42.966;1.608;2023-02-11T18:34:55;98574.53;;;9.12;56.48
52361;BME280;38294;42.966;1.608;2023-02-11T18:37:21;98577.06;;;9.57;53.29
52361;BME280;38294;42.966;1.608;2023-02-11T18:39:46;98579.09;;;9.34;51.94
52361;BME280;38294;42.966;1.608;2023-02-11T18:42:12;98576.97;;;9.14;52.91
52361;BME280;38294;42.966;1.608;2023-02-11T18:44:37;98582.47;;;8.83;53.37
52361;BME280;38294;42.966;1.608;2023-02-11T18:47:03;98582.91;;;9.07;54.72
52361;BME280;38294;42.966;1.608;2023-02-11T18:49:29;98587.41;;;9.12;53.56
52361;BME280;38294;42.966;1.608;2023-02-11T18:51:54;98587.50;;;9.55;51.65
52361;BME280;38294;42.966;1.608;2023-02-11T18:54:22;98588.94;;;9.43;51.98
52361;BME280;38294;42.966;1.608;2023-02-11T18:56:48;98592.16;;;9.37;51.46
52361;BME280;38294;42.966;1.608;2023-02-11T18:59:13;98594.72;;;9.33;51.39
52361;BME280;38294;42.966;1.608;2023-02-11T19:01:39;98594.53;;;9.30;51.60
52361;BME280;38294;42.966;1.608;2023-02-11T19:04:07;98597.44;;;9.33;50.90
52361;BME280;38294;42.966;1.608;2023-02-11T19:06:35;98606.78;;;9.32;51.55
52361;BME280;38294;42.966;1.608;2023-02-11T19:09:05;98607.88;;;9.23;51.49
52361;BME280;38294;42.966;1.608;2023-02-11T19:11:31;98602.50;;;9.09;51.73
52361;BME280;38294;42.966;1.608;2023-02-11T19:14:23;98611.06;;;9.16;51.78
52361;BME280;38294;42.966;1.608;2023-02-11T19:16:51;98606.84;;;9.10;51.46